PATC/TNC METAR and TAF weather

Enter ICAO airport designator
Station Type Date Time Source
PATC METAR 2019/08/24 22:36 UTC NOAA

PATC 242236Z AUTO 23011KT 1 1/4SM -SHRA BR BKN003 06/06 A2988 RMK AO2 SLP120


Station Type Date Time Source
PATC Decoded METAR 2019/08/24 22:36 UTC NOAA

Station name not available
Aug 24, 2019 - 06:36 PM EDT / 2019.08.24 2236 UTC
Wind: from the SW (230 degrees) at 13 MPH (11 KT):0
Visibility: 1 1/4 mile(s):0
Sky conditions: mostly cloudy
Weather: light rain showers; mist
Temperature: 42 F (6 C)
Dew Point: 42 F (6 C)
Relative Humidity: 100%
Pressure (altimeter): 29.88 in. Hg (1011 hPa)
ob: PATC 242236Z AUTO 23011KT 1 1/4SM -SHRA BR BKN003 06/06 A2988 RMK AO2 SLP120
cycle: 22

Station Type Date Time Source
PATC TAF 2016/08/27 04:12 UTC NOAA

TAF PATC 270400Z 2704/2810 18012G18KT 0400 FG OVC002 QNH3015INS TX10/2718Z TN06/2710Z

Example: see airport list